Bayfield, CO

6:26 PM MDT on August 21, 2014 (GMT -0600)
Pagosa Springs | Change Station
CLOSE
Current Station
Airport
Location: Pagosa Springs,
Elevation: 7657 ft
Nearby Weather Stations

Elev 7657 ft 37.29 °N, 107.06 °W | Updated 11 minutes ago

Clear
Clear
74 °F
Feels Like 74 °F
N
9
Wind Variable Wind from West

Today
High -- | Low -- °F
--% Chance of Precip.
Yesterday
High -- | Low -- °F
Precip. -- in
6:31 AM 7:54 PM
Waning Crescent, 11% visible
Pressure 30.26 in
Visibility 10.0 miles
Clouds Clear
Dew Point 32 °F
Humidity 21%
Rainfall 0.00 in
Snow Depth 0 in
UV 1 out of 12
Pollen 7.70 out of 12
Air Quality Not available.
Flu Activity Not available.
METAR KPSO 220015Z AUTO 26008KT 10SM CLR 24/00 A3026 RMK AO2 T02361001

More Conditions Fewer Conditions

Pressure 30.26 in
Visibility 10.0 miles
Clouds Clear
Dew Point 32 °F
Humidity 21%
Rainfall 0.00 in
Snow Depth 0 in
UV 1 out of 12
Pollen 7.70 out of 12
Air Quality Not available.
Flu Activity Not available.
METAR KPSO 220015Z AUTO 26008KT 10SM CLR 24/00 A3026 RMK AO2 T02361001

More Conditions Fewer Conditions

10-Day Weather Forecast

Almanac

Astronomy

Aug. 21, 2014 Rise Set
Actual Time 6:31 AM MDT 7:54 PM MDT
Civil Twilight 6:04 AM MDT 8:21 PM MDT
Nautical Twilight 5:31 AM MDT 8:54 PM MDT
Astronomical Twilight 4:57 AM MDT 9:28 PM MDT
Moon 3:06 AM MDT (8/21) 5:23 PM MDT (8/21)
Length of Visible Light 14h 17m
Length of Day
13h 22m
Tomorrow will be 2m 11s shorter.
Waning Crescent, 11% of the Moon is Illuminated
Today
Waning Crescent
Aug 25
New
Sep 2
First Quarter
Sep 8
Full
Sep 15
Last Quarter

Today's Extremes

State Highs State Lows

Community

WunderPhotos

Upload Photos

1,746,075 photos uploaded!

Nearby

Snow Depth

Station Depth Elevation
Vallecito 0 in 10880 ft
Columbus Basin 0 in 10785 ft
Mineral Creek 0 in 10040 ft
Lizard Head Pass 0 in 10200 ft
El Diente Peak 0 in 10200 ft

Earthquake Activity

City Distance Mag. Time & Date
No recent earthquake activity has been reported nearby.
Minimum magnitude displayed is 2.5.

Coastal Water Temperatures

Place Temperature
No Stations Reporting

Nearby Weather Stations